createdAt,value
2017-11-18T00:02:12.641Z,99.90
2017-11-18T00:04:41.487Z,99.90
2017-11-18T00:07:10.296Z,99.90
2017-11-18T00:09:39.105Z,99.90
2017-11-18T00:12:07.958Z,99.90
2017-11-18T00:14:36.774Z,99.90
2017-11-18T00:17:05.620Z,99.90
2017-11-18T00:19:34.427Z,99.90
2017-11-18T00:22:03.263Z,99.90
2017-11-18T00:24:32.058Z,99.90
2017-11-18T00:27:00.887Z,99.90
2017-11-18T00:29:29.692Z,99.90
2017-11-18T00:31:58.534Z,99.90
2017-11-18T00:34:28.097Z,99.90
2017-11-18T00:36:56.890Z,99.90
2017-11-18T00:39:25.737Z,99.90
2017-11-18T00:41:55.290Z,99.90
2017-11-18T00:44:24.112Z,99.90
2017-11-18T00:46:52.919Z,99.90
2017-11-18T00:49:22.526Z,99.90
2017-11-18T00:51:52.091Z,99.90
2017-11-18T00:54:20.946Z,99.90
2017-11-18T00:56:49.992Z,99.90
2017-11-18T00:59:18.792Z,99.90
2017-11-18T01:01:47.630Z,99.90
2017-11-18T01:04:16.437Z,99.90
2017-11-18T01:06:45.288Z,99.90
2017-11-18T01:09:14.096Z,99.90
2017-11-18T01:11:42.943Z,99.90
2017-11-18T01:14:11.748Z,99.90
2017-11-18T01:16:41.351Z,99.90
2017-11-18T01:19:10.919Z,99.90
2017-11-18T01:21:39.732Z,99.90
2017-11-18T01:24:08.596Z,99.90
2017-11-18T01:26:37.391Z,99.90
2017-11-18T01:29:06.238Z,99.90
2017-11-18T01:31:35.032Z,99.90
2017-11-18T01:34:03.840Z,99.90
2017-11-18T01:36:32.713Z,99.90
2017-11-18T01:39:01.517Z,99.90
2017-11-18T01:41:30.354Z,99.90
2017-11-18T01:43:59.184Z,99.90
2017-11-18T01:46:28.022Z,99.90
2017-11-18T01:48:56.812Z,99.90
2017-11-18T01:51:25.611Z,99.90
2017-11-18T01:53:54.461Z,99.90
2017-11-18T01:56:23.267Z,99.90
2017-11-18T01:58:52.103Z,99.90
2017-11-18T02:01:21.390Z,99.90
2017-11-18T02:03:50.257Z,99.90
2017-11-18T02:06:19.062Z,99.90
2017-11-18T02:08:47.863Z,99.90
2017-11-18T02:11:16.708Z,99.90
2017-11-18T02:13:45.508Z,99.90
2017-11-18T02:16:14.355Z,99.90
2017-11-18T02:18:43.927Z,99.90
2017-11-18T02:21:12.465Z,99.90
2017-11-18T02:23:40.978Z,99.90
2017-11-18T02:26:09.799Z,99.90
2017-11-18T02:28:38.018Z,99.90
2017-11-18T02:31:06.985Z,99.90
2017-11-18T02:33:36.286Z,99.90
2017-11-18T02:36:05.221Z,99.90
2017-11-18T02:38:34.107Z,99.90
2017-11-18T02:41:03.412Z,99.90
2017-11-18T02:43:31.603Z,99.90
2017-11-18T02:45:59.823Z,99.90
2017-11-18T02:48:29.101Z,99.90
2017-11-18T02:50:57.665Z,99.90
2017-11-18T02:53:26.184Z,99.90
2017-11-18T02:55:55.138Z,99.90
2017-11-18T02:58:23.412Z,99.90
2017-11-18T03:00:51.917Z,99.90
2017-11-18T03:03:20.726Z,99.90
2017-11-18T03:05:50.290Z,99.90
2017-11-18T03:08:19.135Z,99.90
2017-11-18T03:10:47.935Z,99.90
2017-11-18T03:13:16.791Z,99.90
2017-11-18T03:15:45.591Z,99.90
2017-11-18T03:18:15.179Z,99.90
2017-11-18T03:20:44.038Z,99.90
2017-11-18T03:23:12.830Z,99.90
2017-11-18T03:25:41.676Z,99.90
2017-11-18T03:28:11.266Z,99.90
2017-11-18T03:30:40.063Z,99.90
2017-11-18T03:33:09.672Z,99.90
2017-11-18T03:35:39.245Z,99.90
2017-11-18T03:38:08.099Z,99.90
2017-11-18T03:40:36.901Z,99.90
2017-11-18T03:43:05.709Z,99.90
2017-11-18T03:45:34.543Z,99.90
2017-11-18T03:48:03.487Z,99.90
2017-11-18T03:50:32.304Z,99.90
2017-11-18T03:53:01.099Z,99.90
2017-11-18T03:55:29.905Z,99.90
2017-11-18T03:57:59.531Z,99.90
2017-11-18T04:00:34.033Z,99.90
2017-11-18T04:03:02.906Z,99.90
2017-11-18T04:05:31.715Z,99.90
2017-11-18T04:08:01.218Z,99.90
2017-11-18T04:10:30.030Z,99.90
2017-11-18T04:12:59.609Z,99.90
2017-11-18T04:15:28.098Z,99.90
2017-11-18T04:17:56.907Z,99.90
2017-11-18T04:20:26.515Z,99.90
2017-11-18T04:22:56.081Z,99.90
2017-11-18T04:25:24.666Z,99.90
2017-11-18T04:27:53.465Z,99.90
2017-11-18T04:30:22.315Z,99.90
2017-11-18T04:32:51.196Z,99.90
2017-11-18T04:35:19.997Z,99.90
2017-11-18T04:37:48.851Z,99.90
2017-11-18T04:40:18.415Z,99.90
2017-11-18T04:42:47.249Z,99.90
2017-11-18T04:45:16.843Z,99.90
2017-11-18T04:47:45.702Z,99.90
2017-11-18T04:50:14.497Z,99.90
2017-11-18T04:52:43.307Z,99.90
2017-11-18T04:55:12.165Z,99.90
2017-11-18T04:57:40.967Z,99.90
2017-11-18T05:00:09.826Z,99.90
2017-11-18T05:02:38.627Z,99.90
2017-11-18T05:05:06.856Z,99.90
2017-11-18T05:07:35.663Z,99.90
2017-11-18T05:10:04.600Z,99.90
2017-11-18T05:12:33.460Z,99.90
2017-11-18T05:15:02.252Z,99.90
2017-11-18T05:17:31.158Z,99.90
2017-11-18T05:19:59.957Z,99.90
2017-11-18T05:22:28.821Z,99.90
2017-11-18T05:24:57.617Z,99.90
2017-11-18T05:27:26.437Z,99.90
2017-11-18T05:29:55.234Z,99.90
2017-11-18T05:32:24.032Z,99.90
2017-11-18T05:34:53.090Z,99.90
2017-11-18T05:37:21.611Z,99.90
2017-11-18T05:39:50.448Z,99.90
2017-11-18T05:42:19.249Z,99.90
2017-11-18T05:44:48.104Z,99.90
2017-11-18T05:47:17.679Z,99.90
2017-11-18T05:49:46.548Z,99.90
2017-11-18T05:52:15.390Z,99.90
2017-11-18T05:54:44.959Z,99.90
2017-11-18T05:57:13.824Z,99.90
2017-11-18T05:59:42.315Z,99.90
2017-11-18T06:02:10.534Z,99.90
2017-11-18T06:04:39.329Z,99.90
2017-11-18T06:07:08.182Z,99.90
2017-11-18T06:09:37.023Z,99.90
2017-11-18T06:12:06.591Z,99.90
2017-11-18T06:14:35.414Z,99.90
2017-11-18T06:17:04.221Z,99.90
2017-11-18T06:19:33.797Z,99.90
2017-11-18T06:22:02.598Z,99.90
2017-11-18T06:24:31.415Z,99.90
2017-11-18T06:27:00.206Z,99.90
2017-11-18T06:29:29.050Z,99.90
2017-11-18T06:31:57.850Z,99.90
2017-11-18T06:34:26.657Z,99.90
2017-11-18T06:36:56.276Z,99.90
2017-11-18T06:39:26.589Z,99.90
2017-11-18T06:41:56.195Z,99.90
2017-11-18T06:44:25.771Z,99.90
2017-11-18T06:46:54.608Z,99.90
2017-11-18T06:49:23.419Z,99.90
2017-11-18T06:51:52.227Z,99.90
2017-11-18T06:54:20.771Z,99.90
2017-11-18T06:56:50.370Z,99.90
2017-11-18T06:59:19.966Z,99.90
2017-11-18T07:01:49.550Z,99.90
2017-11-18T07:04:18.402Z,99.90
2017-11-18T07:06:47.203Z,99.90
2017-11-18T07:09:16.050Z,99.90
2017-11-18T07:11:44.855Z,99.90
2017-11-18T07:14:14.408Z,99.90
2017-11-18T07:16:43.248Z,99.90
2017-11-18T07:19:12.947Z,99.90
2017-11-18T07:21:41.777Z,99.90
2017-11-18T07:24:10.664Z,99.90
2017-11-18T07:26:40.292Z,99.90
2017-11-18T07:29:09.099Z,99.90
2017-11-18T07:31:37.944Z,99.90
2017-11-18T07:34:06.969Z,99.90
2017-11-18T07:36:35.815Z,99.90
2017-11-18T07:39:04.787Z,99.90
2017-11-18T07:41:33.581Z,99.90
2017-11-18T07:44:02.425Z,99.90
2017-11-18T07:46:31.237Z,99.90
2017-11-18T07:49:00.194Z,99.90
2017-11-18T07:51:29.007Z,99.90
2017-11-18T07:53:57.860Z,99.90
2017-11-18T07:56:27.419Z,99.90
2017-11-18T07:58:56.254Z,99.90
2017-11-18T08:01:25.826Z,99.90
2017-11-18T08:03:54.617Z,99.90
2017-11-18T08:06:23.455Z,99.90
2017-11-18T08:08:52.250Z,99.90
2017-11-18T08:11:21.099Z,99.90
2017-11-18T08:13:49.891Z,99.90
2017-11-18T08:16:18.731Z,99.90
2017-11-18T08:18:47.537Z,99.90
2017-11-18T08:21:16.377Z,99.90
2017-11-18T08:23:45.992Z,99.90
2017-11-18T08:26:15.562Z,99.90
2017-11-18T08:28:44.368Z,99.90
2017-11-18T08:31:13.172Z,99.90
2017-11-18T08:33:42.864Z,99.90
2017-11-18T08:36:23.434Z,99.90
2017-11-18T08:38:52.726Z,99.90
2017-11-18T08:41:21.524Z,99.90
2017-11-18T08:43:50.366Z,99.90
2017-11-18T08:46:20.165Z,99.90
2017-11-18T08:48:49.143Z,99.90
2017-11-18T08:51:18.751Z,99.90
2017-11-18T08:53:48.323Z,99.90
2017-11-18T08:56:16.657Z,99.90
2017-11-18T08:58:45.476Z,99.90
2017-11-18T09:01:14.331Z,99.90
2017-11-18T09:03:43.246Z,99.90
2017-11-18T09:06:12.051Z,99.90
2017-11-18T09:08:41.641Z,99.90
2017-11-18T09:11:10.452Z,99.90
2017-11-18T09:13:39.408Z,99.90
2017-11-18T09:16:08.231Z,99.90
2017-11-18T09:18:37.108Z,99.90
2017-11-18T09:21:06.127Z,99.90
2017-11-18T09:23:44.672Z,99.90
2017-11-18T09:26:13.903Z,99.90
2017-11-18T09:28:43.177Z,99.90
2017-11-18T09:31:12.754Z,99.90
2017-11-18T09:33:41.551Z,99.90
2017-11-18T09:36:10.235Z,99.90
2017-11-18T09:38:39.046Z,99.90
2017-11-18T09:41:08.617Z,99.90
2017-11-18T09:43:37.410Z,99.90
2017-11-18T09:46:06.268Z,99.90
2017-11-18T09:48:35.071Z,99.90
2017-11-18T09:51:03.614Z,99.90
2017-11-18T09:53:33.179Z,99.90
2017-11-18T09:56:02.018Z,99.90
2017-11-18T09:58:31.619Z,99.70
2017-11-18T10:01:01.220Z,97.70
2017-11-18T10:03:30.881Z,96.90
2017-11-18T10:05:59.069Z,96.90
2017-11-18T10:08:27.923Z,96.50
2017-11-18T10:10:56.729Z,96.00
2017-11-18T10:13:25.548Z,95.40
2017-11-18T10:15:54.399Z,95.00
2017-11-18T10:18:23.195Z,94.60
2017-11-18T10:20:52.052Z,94.10
2017-11-18T10:23:21.631Z,93.40
2017-11-18T10:25:50.471Z,93.30
2017-11-18T10:28:19.297Z,93.00
2017-11-18T10:30:48.149Z,92.90
2017-11-18T10:33:16.960Z,92.60
2017-11-18T10:35:45.781Z,92.60
2017-11-18T10:38:14.660Z,91.70
2017-11-18T10:40:43.473Z,91.30
2017-11-18T10:43:12.326Z,90.50
2017-11-18T10:45:41.913Z,90.70
2017-11-18T10:48:10.727Z,90.70
2017-11-18T10:50:39.545Z,90.40
2017-11-18T10:53:08.368Z,90.40
2017-11-18T10:55:37.221Z,90.20
2017-11-18T10:58:06.042Z,90.10
2017-11-18T11:00:35.673Z,89.40
2017-11-18T11:03:03.922Z,89.40
2017-11-18T11:05:33.590Z,87.40
2017-11-18T11:08:02.396Z,87.40
2017-11-18T11:10:31.231Z,87.40
2017-11-18T11:13:00.154Z,86.30
2017-11-18T11:15:28.980Z,85.90
2017-11-18T11:17:57.828Z,86.10
2017-11-18T11:20:26.655Z,86.10
2017-11-18T11:22:55.476Z,87.30
2017-11-18T11:25:25.059Z,84.80
2017-11-18T11:27:53.601Z,84.80
2017-11-18T11:30:22.412Z,84.60
2017-11-18T11:32:51.227Z,85.20
2017-11-18T11:35:20.107Z,84.30
2017-11-18T11:37:48.920Z,84.40
2017-11-18T11:40:18.539Z,84.30
2017-11-18T11:42:48.114Z,84.00
2017-11-18T11:45:16.620Z,84.00
2017-11-18T11:47:46.226Z,81.40
2017-11-18T11:50:15.069Z,81.50
2017-11-18T11:52:43.926Z,80.40
2017-11-18T11:55:12.579Z,80.40
2017-11-18T11:57:41.400Z,80.50
2017-11-18T12:00:10.204Z,78.90
2017-11-18T12:02:39.795Z,78.40
2017-11-18T12:05:09.411Z,78.00
2017-11-18T12:07:37.902Z,78.00
2017-11-18T12:10:06.748Z,76.40
2017-11-18T12:12:35.555Z,76.60
2017-11-18T12:15:04.655Z,74.30
2017-11-18T12:17:33.334Z,74.00
2017-11-18T12:20:02.907Z,71.90
2017-11-18T12:22:31.457Z,71.90
2017-11-18T12:24:59.955Z,72.70
2017-11-18T12:27:28.786Z,72.40
2017-11-18T12:29:57.620Z,71.80
2017-11-18T12:32:26.451Z,78.40
2017-11-18T12:34:55.322Z,86.50
2017-11-18T12:37:24.120Z,75.20
2017-11-18T12:39:53.004Z,73.10
2017-11-18T12:42:21.802Z,73.10
2017-11-18T12:44:50.599Z,72.20
2017-11-18T12:47:19.131Z,72.50
2017-11-18T12:49:48.698Z,70.90
2017-11-18T12:52:17.539Z,70.90
2017-11-18T12:54:46.360Z,70.60
2017-11-18T12:57:15.200Z,70.30
2017-11-18T12:59:44.032Z,70.00
2017-11-18T13:02:12.867Z,70.30
2017-11-18T13:04:41.679Z,69.90
2017-11-18T13:07:11.247Z,69.30
2017-11-18T13:09:40.079Z,69.20
2017-11-18T13:12:08.883Z,68.50
2017-11-18T13:14:37.680Z,68.90
2017-11-18T13:17:06.491Z,69.00
2017-11-18T13:19:36.198Z,68.80
2017-11-18T13:22:04.991Z,68.10
2017-11-18T13:24:33.854Z,68.40
2017-11-18T13:27:02.571Z,68.30
2017-11-18T13:29:31.371Z,67.90
2017-11-18T13:32:00.227Z,67.90
2017-11-18T13:34:29.067Z,67.80
2017-11-18T13:36:57.992Z,67.90
2017-11-18T13:39:26.834Z,85.90
2017-11-18T13:41:55.654Z,71.80
2017-11-18T13:44:25.271Z,68.70
2017-11-18T13:46:54.849Z,69.20
2017-11-18T13:49:24.576Z,68.70
2017-11-18T13:51:54.171Z,70.40
2017-11-18T13:54:22.993Z,70.10
2017-11-18T13:56:51.803Z,70.30
2017-11-18T13:59:20.642Z,70.10
2017-11-18T14:01:49.482Z,70.30
2017-11-18T14:04:18.376Z,70.20
2017-11-18T14:06:47.239Z,70.20
2017-11-18T14:09:16.826Z,70.60
2017-11-18T14:11:45.695Z,70.60
2017-11-18T14:14:14.211Z,70.20
2017-11-18T14:16:43.175Z,70.80
2017-11-18T14:19:11.722Z,70.70
2017-11-18T14:21:40.508Z,70.70
2017-11-18T14:24:09.360Z,77.00
2017-11-18T14:26:38.183Z,72.10
2017-11-18T14:29:07.034Z,70.20
2017-11-18T14:31:35.831Z,69.90
2017-11-18T14:34:04.518Z,70.00
2017-11-18T14:36:33.970Z,70.40
2017-11-18T14:39:02.626Z,70.40
2017-11-18T14:41:31.582Z,69.80
2017-11-18T14:44:00.440Z,69.80
2017-11-18T14:46:29.268Z,69.70
2017-11-18T14:48:58.219Z,69.30
2017-11-18T14:51:27.038Z,68.80
2017-11-18T14:53:55.899Z,68.70
2017-11-18T14:56:24.565Z,69.00
2017-11-18T14:58:53.988Z,69.00
2017-11-18T15:01:22.057Z,68.90
2017-11-18T15:03:50.091Z,68.20
2017-11-18T15:06:18.144Z,68.20
2017-11-18T15:08:46.159Z,67.50
2017-11-18T15:11:14.977Z,67.40
2017-11-18T15:13:42.994Z,67.30
2017-11-18T15:19:24.779Z,66.60
2017-11-18T15:22:00.101Z,67.50
2017-11-18T15:24:33.720Z,67.90
2017-11-18T15:27:20.838Z,67.40
2017-11-18T15:29:54.410Z,67.40
2017-11-18T15:32:24.169Z,67.30
2017-11-18T15:35:08.783Z,67.30
2017-11-18T15:37:52.566Z,66.90
2017-11-18T15:40:20.584Z,67.00
2017-11-18T15:42:50.245Z,67.40
2017-11-18T15:45:20.354Z,67.40
2017-11-18T15:47:54.059Z,67.80
2017-11-18T15:50:22.880Z,67.40
2017-11-18T15:53:06.143Z,67.60
2017-11-18T15:55:39.702Z,67.50
2017-11-18T15:58:09.071Z,67.00
2017-11-18T16:00:39.039Z,67.20
2017-11-18T16:03:07.671Z,67.40
2017-11-18T16:05:38.148Z,67.10
2017-11-18T16:08:21.535Z,67.00
2017-11-18T16:11:10.064Z,67.20
2017-11-18T16:13:39.997Z,67.10
2017-11-18T16:16:11.476Z,66.90
2017-11-18T16:18:39.996Z,67.00
2017-11-18T16:21:09.332Z,67.00
2017-11-18T16:23:37.980Z,66.90
2017-11-18T16:26:06.493Z,67.60
2017-11-18T16:28:35.062Z,66.50
2017-11-18T16:31:04.321Z,66.80
2017-11-18T16:33:32.882Z,66.70
2017-11-18T16:36:01.989Z,66.70
2017-11-18T16:38:30.164Z,67.00
2017-11-18T16:40:58.390Z,66.70
2017-11-18T16:43:28.514Z,66.30
2017-11-18T16:45:57.503Z,65.60
2017-11-18T16:48:27.248Z,65.90
2017-11-18T16:50:55.763Z,65.90
2017-11-18T16:53:24.946Z,65.90
2017-11-18T16:55:53.118Z,65.40
2017-11-18T16:58:21.345Z,65.40
2017-11-18T17:43:15.037Z,65.30
2017-11-18T17:45:44.043Z,65.90
2017-11-18T17:48:12.215Z,65.90
2017-11-18T17:50:40.437Z,66.10
2017-11-18T17:53:08.610Z,66.20
2017-11-18T17:55:36.826Z,66.10
2017-11-18T17:58:05.759Z,66.10
2017-11-18T18:00:33.965Z,66.10
2017-11-18T18:03:02.140Z,66.40
2017-11-18T18:05:30.390Z,66.30
2017-11-18T18:07:58.958Z,66.30
2017-11-18T18:10:27.142Z,66.60
2017-11-18T18:12:55.207Z,66.50
2017-11-18T18:15:23.470Z,66.70
2017-11-18T18:17:52.328Z,66.90
2017-11-18T18:20:22.309Z,68.90
2017-11-18T18:22:51.124Z,68.20
2017-11-18T18:25:26.167Z,69.00
2017-11-18T18:27:54.972Z,69.80
2017-11-18T18:30:24.578Z,71.60
2017-11-18T18:32:54.903Z,72.40
2017-11-18T18:35:32.826Z,73.60
2017-11-18T18:38:01.635Z,73.70
2017-11-18T18:40:30.435Z,74.20
2017-11-18T18:42:59.278Z,75.80
2017-11-18T18:45:29.503Z,75.90
2017-11-18T18:47:59.372Z,77.20
2017-11-18T18:50:32.877Z,77.20
2017-11-18T18:53:17.056Z,78.10
2017-11-18T18:55:46.994Z,79.30
2017-11-18T18:58:16.834Z,79.30
2017-11-18T19:00:45.664Z,79.50
2017-11-18T19:03:14.491Z,80.50
2017-11-18T19:05:49.435Z,81.70
2017-11-18T19:10:59.014Z,82.40
2017-11-18T19:13:27.834Z,82.40
2017-11-18T19:15:57.485Z,82.80
2017-11-18T19:18:26.316Z,83.20
2017-11-18T19:20:55.173Z,83.50
2017-11-18T19:23:24.694Z,83.80
2017-11-18T19:25:53.540Z,84.20
2017-11-18T19:28:23.259Z,84.70
2017-11-18T19:30:52.831Z,84.80
2017-11-18T19:33:21.924Z,84.80
2017-11-18T19:35:50.764Z,84.80
2017-11-18T19:38:19.619Z,84.80
2017-11-18T19:40:49.227Z,85.10
2017-11-18T19:43:18.120Z,85.10
2017-11-18T19:45:47.643Z,84.80
2017-11-18T19:48:17.287Z,85.50
2017-11-18T19:50:46.152Z,85.40
2017-11-18T19:53:14.957Z,85.40
2017-11-18T19:55:47.113Z,85.80
2017-11-18T19:58:16.603Z,86.00
2017-11-18T20:00:45.832Z,86.40
2017-11-18T20:03:15.772Z,86.40
2017-11-18T20:05:44.330Z,86.70
2017-11-18T20:08:12.526Z,86.40
2017-11-18T20:10:41.091Z,86.60
2017-11-18T20:13:09.925Z,86.70
2017-11-18T20:15:38.372Z,87.10
2017-11-18T20:18:07.272Z,87.10
2017-11-18T20:20:35.796Z,87.40
2017-11-18T20:23:04.447Z,87.40
2017-11-18T20:25:33.303Z,88.00
2017-11-18T20:28:02.914Z,87.40
2017-11-18T20:30:31.961Z,87.50
2017-11-18T20:33:00.760Z,87.60
2017-11-18T20:35:29.819Z,87.80
2017-11-18T20:37:58.644Z,87.90
2017-11-18T20:40:27.519Z,88.30
2017-11-18T20:42:56.393Z,89.70
2017-11-18T20:45:25.682Z,89.60
2017-11-18T20:47:54.527Z,89.70
2017-11-18T20:50:23.331Z,90.00
2017-11-18T20:52:52.977Z,90.00
2017-11-18T20:55:21.498Z,90.00
2017-11-18T20:57:50.344Z,89.70
2017-11-18T21:00:19.151Z,89.50
2017-11-18T21:02:47.997Z,89.70
2017-11-18T21:05:17.671Z,89.50
2017-11-18T21:07:46.474Z,89.40
2017-11-18T21:10:15.329Z,89.60
2017-11-18T21:12:45.010Z,89.40
2017-11-18T21:15:14.630Z,89.50
2017-11-18T21:17:43.446Z,89.40
2017-11-18T21:20:12.293Z,89.60
2017-11-18T21:22:41.865Z,89.30
2017-11-18T21:25:10.666Z,89.30
2017-11-18T21:27:39.537Z,89.10
2017-11-18T21:30:08.348Z,89.20
2017-11-18T21:32:37.222Z,89.30
2017-11-18T21:35:06.023Z,89.30
2017-11-18T21:37:34.576Z,89.40
2017-11-18T21:40:03.138Z,89.40
2017-11-18T21:42:31.955Z,89.30
2017-11-18T21:45:00.814Z,89.60
2017-11-18T21:47:29.671Z,89.80
2017-11-18T21:49:59.259Z,90.10
2017-11-18T21:52:28.095Z,90.10
2017-11-18T21:54:56.960Z,90.10
2017-11-18T21:57:25.778Z,90.10
2017-11-18T21:59:55.385Z,90.20
2017-11-18T22:02:25.768Z,90.30
2017-11-18T22:04:55.607Z,90.30
2017-11-18T22:07:24.877Z,90.50
2017-11-18T22:09:53.685Z,90.50
2017-11-18T22:12:22.537Z,90.60
2017-11-18T22:14:51.347Z,90.60
2017-11-18T22:17:20.489Z,90.60
2017-11-18T22:19:50.058Z,90.70
2017-11-18T22:22:18.862Z,90.70
2017-11-18T22:24:47.708Z,90.80
2017-11-18T22:27:16.532Z,90.80
2017-11-18T22:29:46.252Z,90.90
2017-11-18T22:32:15.095Z,91.00
2017-11-18T22:34:43.894Z,91.10
2017-11-18T22:37:12.734Z,91.10
2017-11-18T22:39:41.543Z,91.10
2017-11-18T22:42:11.151Z,91.10
2017-11-18T22:44:39.967Z,91.10
2017-11-18T22:47:08.968Z,91.10
2017-11-18T22:49:37.819Z,91.10
2017-11-18T22:52:07.386Z,91.20
2017-11-18T22:54:36.237Z,91.20
2017-11-18T22:57:04.731Z,91.20
2017-11-18T22:59:33.568Z,91.20
2017-11-18T23:02:02.375Z,91.10
2017-11-18T23:04:31.953Z,91.10
2017-11-18T23:07:00.797Z,91.20
2017-11-18T23:09:29.599Z,91.10
2017-11-18T23:11:58.435Z,91.10
2017-11-18T23:14:27.232Z,91.10
2017-11-18T23:16:56.036Z,91.10
2017-11-18T23:19:24.906Z,91.10
2017-11-18T23:21:53.714Z,91.00
2017-11-18T23:24:23.327Z,91.10
2017-11-18T23:26:52.906Z,91.00
2017-11-18T23:29:22.364Z,91.00
2017-11-18T23:31:51.189Z,91.00
2017-11-18T23:34:19.692Z,91.00
2017-11-18T23:36:48.540Z,90.80
2017-11-18T23:39:17.450Z,90.80
2017-11-18T23:41:46.291Z,90.70
2017-11-18T23:44:15.844Z,90.40
2017-11-18T23:46:45.272Z,90.40
2017-11-18T23:49:14.090Z,90.40
2017-11-18T23:51:43.670Z,90.30
2017-11-18T23:54:12.191Z,90.30
2017-11-18T23:56:41.017Z,90.30
2017-11-18T23:59:09.539Z,90.30
